Plaza, Washington
Current Conditions -  °F | °C
As of 5:53 AM on Friday 31 Oct 2014 (Local Time) from KGEG Reporting Station
Drizzle Drizzle  
Wind Chill: 43°   Ceiling: 200
Heat Index: 46°   Visibility: 0.25mi
Dew Point: 46°   Wind: 6mph
Humidity: 100%   Direction: 180°S
Pressure: 29.75"   Gusts: NA
Location:  47.2196°N, 117.453°W
Report Text: KGEG 311253Z 18005KT 1/4SM R21/2400V3500FT -DZ FG VV002 08/08 A2975 RMK AO2 SFC VIS 1/2 DZB42 SLP077 P0000 T00780078
Loading
Personal Weather Stations






























Interactive Weather Map
Tropical Storm Tracking
New forecast layout! Learn more

10-Day Weather Forecast

Advertisements
Track Severe Weather on mobile